createdAt,value
2022-08-27T00:00:58.289Z,99912.16
2022-08-27T00:02:01.093Z,99909.30
2022-08-27T00:03:05.135Z,99913.37
2022-08-27T00:04:10.095Z,99907.31
2022-08-27T00:05:14.848Z,99873.08
2022-08-27T00:06:22.285Z,99901.55
2022-08-27T00:07:24.977Z,99910.83
2022-08-27T00:08:27.652Z,99902.89
2022-08-27T00:09:33.049Z,99902.16
2022-08-27T00:10:38.454Z,99900.66
2022-08-27T00:11:41.443Z,99911.76
2022-08-27T00:12:47.731Z,99915.63
2022-08-27T00:13:50.374Z,99918.31
2022-08-27T00:14:56.318Z,99917.80
2022-08-27T00:16:00.552Z,99921.84
2022-08-27T00:17:04.635Z,99922.52
2022-08-27T00:18:07.438Z,99923.67
2022-08-27T00:19:09.992Z,99912.04
2022-08-27T00:20:15.160Z,99914.25
2022-08-27T00:21:18.026Z,99907.62
2022-08-27T00:22:20.659Z,99906.65
2022-08-27T00:23:23.049Z,99900.77
2022-08-27T00:24:27.131Z,99910.20
2022-08-27T00:25:29.795Z,99910.52
2022-08-27T00:26:32.902Z,99911.53
2022-08-27T00:27:35.319Z,99916.05
2022-08-27T00:28:37.897Z,99915.73
2022-08-27T00:29:40.388Z,99909.16
2022-08-27T00:30:43.694Z,99900.53
2022-08-27T00:31:46.600Z,99864.11
2022-08-27T00:32:50.674Z,99908.67
2022-08-27T00:33:53.154Z,99903.77
2022-08-27T00:34:56.044Z,99903.77
2022-08-27T00:35:59.674Z,99912.69
2022-08-27T00:37:03.941Z,99916.21
2022-08-27T00:38:11.859Z,99909.31
2022-08-27T00:39:14.661Z,99906.67
2022-08-27T00:40:20.724Z,99904.95
2022-08-27T00:41:23.497Z,99910.98
2022-08-27T00:42:31.059Z,99903.92
2022-08-27T00:43:48.580Z,99903.92
2022-08-27T00:44:51.383Z,99915.24
2022-08-27T00:45:57.438Z,99912.36
2022-08-27T00:47:05.114Z,99913.38
2022-08-27T00:48:10.146Z,99910.34
2022-08-27T00:50:55.044Z,99910.20
2022-08-27T00:52:04.133Z,99911.37
2022-08-27T00:53:21.815Z,99907.97
2022-08-27T00:54:26.394Z,99912.04
2022-08-27T00:55:32.360Z,99909.31
2022-08-27T00:56:40.317Z,99912.69
2022-08-27T00:57:43.538Z,99910.95
2022-08-27T00:58:49.356Z,99917.37
2022-08-27T00:59:51.892Z,99908.58
2022-08-27T01:00:55.031Z,99912.66
2022-08-27T01:01:59.180Z,99902.01
2022-08-27T01:03:02.066Z,99910.25
2022-08-27T01:04:05.167Z,99913.33
2022-08-27T01:05:13.341Z,99912.30
2022-08-27T01:06:20.186Z,99914.99
2022-08-27T01:07:25.079Z,99911.30
2022-08-27T01:08:33.074Z,99900.05
2022-08-27T01:09:37.064Z,99903.92
2022-08-27T01:10:41.511Z,99883.80
2022-08-27T01:11:46.380Z,99901.87
2022-08-27T01:12:53.798Z,99893.45
2022-08-27T01:14:00.831Z,99908.10
2022-08-27T01:15:00.743Z,99913.16
2022-08-27T01:16:05.309Z,99906.91
2022-08-27T01:17:09.733Z,99907.42
2022-08-27T01:18:13.462Z,99908.74
2022-08-27T01:19:28.338Z,99914.99
2022-08-27T01:20:43.737Z,99911.56
2022-08-27T01:21:52.914Z,99906.05
2022-08-27T01:23:24.448Z,99904.16
2022-08-27T01:24:47.656Z,99912.30
2022-08-27T01:25:51.695Z,99913.77
2022-08-27T01:26:54.989Z,99914.92
2022-08-27T01:27:59.044Z,99918.64
2022-08-27T01:29:02.562Z,99918.64
2022-08-27T01:30:07.007Z,99920.16
2022-08-27T01:31:11.489Z,99915.12
2022-08-27T01:32:17.869Z,99917.81
2022-08-27T01:33:21.372Z,99912.94
2022-08-27T01:34:23.657Z,99913.81
2022-08-27T01:35:26.471Z,99920.86
2022-08-27T01:36:30.606Z,99918.33
2022-08-27T01:37:33.200Z,99926.73
2022-08-27T01:38:35.809Z,99919.28
2022-08-27T01:39:40.741Z,99917.30
2022-08-27T01:40:44.080Z,99919.32
2022-08-27T01:41:48.433Z,99919.72
2022-08-27T01:42:55.238Z,99918.25
2022-08-27T01:43:57.662Z,99918.02
2022-08-27T01:45:05.916Z,99921.58
2022-08-27T01:46:09.104Z,99914.41
2022-08-27T01:47:11.932Z,99929.50
2022-08-27T01:48:16.031Z,99919.72
2022-08-27T01:49:18.522Z,99920.39
2022-08-27T01:50:25.452Z,99916.55
2022-08-27T01:51:28.351Z,99918.97
2022-08-27T01:52:30.751Z,99916.55
2022-08-27T01:53:33.767Z,99920.34
2022-08-27T01:54:36.657Z,99915.17
2022-08-27T01:55:41.728Z,99920.55
2022-08-27T01:56:46.288Z,99920.87
2022-08-27T01:57:49.067Z,99918.09
2022-08-27T01:58:51.570Z,99919.80
2022-08-27T01:59:54.753Z,99919.80
2022-08-27T02:01:03.574Z,99913.66
2022-08-27T02:02:08.005Z,99918.48
2022-08-27T02:03:12.084Z,99918.33
2022-08-27T02:04:14.464Z,99913.58
2022-08-27T02:05:17.625Z,99916.43
2022-08-27T02:06:21.983Z,99916.91
2022-08-27T02:07:24.565Z,99919.55
2022-08-27T02:08:27.043Z,99918.52
2022-08-27T02:09:29.165Z,99915.16
2022-08-27T02:10:35.340Z,99920.53
2022-08-27T02:11:44.710Z,99916.43
2022-08-27T02:12:42.140Z,99911.36
2022-08-27T02:13:44.470Z,99912.83
2022-08-27T02:14:46.764Z,99913.34
2022-08-27T02:15:49.317Z,99913.11
2022-08-27T02:16:53.080Z,99909.42
2022-08-27T02:17:55.893Z,99911.80
2022-08-27T02:18:59.916Z,99911.13
2022-08-27T02:20:03.752Z,99908.47
2022-08-27T02:21:06.306Z,99911.01
2022-08-27T02:22:08.766Z,99904.78
2022-08-27T02:23:12.166Z,99909.15
2022-08-27T02:24:14.557Z,99911.68
2022-08-27T02:25:17.186Z,99912.86
2022-08-27T02:26:20.567Z,99909.47
2022-08-27T02:27:22.960Z,99907.80
2022-08-27T02:28:25.418Z,99911.80
2022-08-27T02:29:27.874Z,99906.09
2022-08-27T02:30:32.620Z,99905.11
2022-08-27T02:31:35.461Z,99913.50
2022-08-27T02:32:38.228Z,99906.09
2022-08-27T02:33:40.595Z,99913.45
2022-08-27T02:34:43.302Z,99912.43
2022-08-27T02:35:45.690Z,99907.72
2022-08-27T02:36:48.290Z,99910.50
2022-08-27T02:37:51.709Z,99911.05
2022-08-27T02:38:54.201Z,99904.80
2022-08-27T02:39:58.501Z,99908.94
2022-08-27T02:41:02.279Z,99904.44
2022-08-27T02:42:05.213Z,99862.80
2022-08-27T02:43:08.205Z,99907.96
2022-08-27T02:44:11.158Z,99905.03
2022-08-27T02:45:17.187Z,99895.96
2022-08-27T02:46:20.557Z,99903.97
2022-08-27T02:47:23.310Z,99907.33
2022-08-27T02:48:25.962Z,99913.45
2022-08-27T02:49:29.645Z,99908.98
2022-08-27T02:50:32.552Z,99914.37
2022-08-27T02:51:36.518Z,99907.59
2022-08-27T02:52:38.786Z,99910.29
2022-08-27T02:53:41.363Z,99908.94
2022-08-27T02:54:44.380Z,99906.09
2022-08-27T02:55:47.472Z,99909.97
2022-08-27T02:56:51.819Z,99902.22
2022-08-27T02:57:54.620Z,99904.91
2022-08-27T02:58:57.217Z,99909.34
2022-08-27T02:59:59.620Z,99900.91
2022-08-27T03:01:02.487Z,99901.54
2022-08-27T03:02:05.049Z,99892.47
2022-08-27T03:03:09.736Z,99902.37
2022-08-27T03:04:13.832Z,99903.71
2022-08-27T03:05:17.948Z,99899.84
2022-08-27T03:06:20.996Z,99890.05
2022-08-27T03:07:23.480Z,99890.41
2022-08-27T03:08:27.375Z,99907.55
2022-08-27T03:09:31.830Z,99897.62
2022-08-27T03:10:34.430Z,99903.87
2022-08-27T03:11:36.914Z,99903.00
2022-08-27T03:12:40.460Z,99898.12
2022-08-27T03:13:42.935Z,99896.94
2022-08-27T03:14:45.431Z,99896.21
2022-08-27T03:15:48.149Z,99898.59
2022-08-27T03:16:52.429Z,99891.35
2022-08-27T03:17:54.765Z,99894.35
2022-08-27T03:18:57.463Z,99898.95
2022-08-27T03:20:00.370Z,99898.80
2022-08-27T03:21:02.932Z,99893.42
2022-08-27T03:22:05.364Z,99891.77
2022-08-27T03:23:12.379Z,99898.80
2022-08-27T03:24:14.918Z,99899.11
2022-08-27T03:25:17.774Z,99899.48
2022-08-27T03:26:20.803Z,99895.80
2022-08-27T03:27:24.767Z,99896.78
2022-08-27T03:28:30.807Z,99896.83
2022-08-27T03:29:35.503Z,99888.44
2022-08-27T03:30:38.462Z,99891.92
2022-08-27T03:31:40.948Z,99897.55
2022-08-27T03:32:43.681Z,99891.97
2022-08-27T03:33:46.260Z,99893.83
2022-08-27T03:34:48.766Z,99891.24
2022-08-27T03:35:52.239Z,99896.31
2022-08-27T03:36:54.974Z,99897.70
2022-08-27T03:37:57.470Z,99892.16
2022-08-27T03:39:00.008Z,99891.92
2022-08-27T03:40:04.531Z,99893.73
2022-08-27T03:41:07.216Z,99892.03
2022-08-27T03:42:09.607Z,99894.25
2022-08-27T03:43:13.840Z,99895.80
2022-08-27T03:44:21.463Z,99893.94
2022-08-27T03:45:20.887Z,99898.64
2022-08-27T03:46:25.055Z,99899.48
2022-08-27T03:47:27.726Z,99896.20
2022-08-27T03:48:31.917Z,99899.73
2022-08-27T03:49:35.081Z,99897.46
2022-08-27T03:50:42.825Z,99890.52
2022-08-27T03:51:45.457Z,99890.56
2022-08-27T03:52:48.119Z,99891.41
2022-08-27T03:53:51.119Z,99892.47
2022-08-27T03:54:53.409Z,99892.16
2022-08-27T03:55:55.817Z,99893.52
2022-08-27T03:56:58.708Z,99891.05
2022-08-27T03:58:01.202Z,99890.82
2022-08-27T03:59:04.031Z,99891.66
2022-08-27T04:00:08.956Z,99886.37
2022-08-27T04:01:11.667Z,99885.03
2022-08-27T04:02:14.960Z,99884.56
2022-08-27T04:03:17.785Z,99881.70
2022-08-27T04:04:20.585Z,99884.13
2022-08-27T04:05:23.394Z,99888.13
2022-08-27T04:06:27.798Z,99883.50
2022-08-27T04:07:30.434Z,99877.48
2022-08-27T04:08:32.725Z,99880.20
2022-08-27T04:09:35.629Z,99883.92
2022-08-27T04:10:41.495Z,99880.55
2022-08-27T04:11:44.005Z,99880.75
2022-08-27T04:12:46.501Z,99886.62
2022-08-27T04:13:49.204Z,99885.23
2022-08-27T04:14:51.643Z,99884.36
2022-08-27T04:15:54.438Z,99880.64
2022-08-27T04:16:58.025Z,99885.23
2022-08-27T04:18:00.432Z,99885.55
2022-08-27T04:19:04.876Z,99875.17
2022-08-27T04:20:34.201Z,99878.53
2022-08-27T04:21:14.638Z,99874.82
2022-08-27T04:22:17.184Z,99863.70
2022-08-27T04:23:19.922Z,99882.61
2022-08-27T04:24:22.488Z,99874.98
2022-08-27T04:25:24.953Z,99879.91
2022-08-27T04:26:28.280Z,99874.66
2022-08-27T04:27:30.581Z,99880.94
2022-08-27T04:28:38.265Z,99859.02
2022-08-27T04:29:38.133Z,99878.25
2022-08-27T04:30:44.868Z,99883.16
2022-08-27T04:31:47.761Z,99876.52
2022-08-27T04:32:50.142Z,99884.63
2022-08-27T04:33:52.732Z,99877.22
2022-08-27T04:34:56.491Z,99878.70
2022-08-27T04:36:02.037Z,99877.48
2022-08-27T04:37:04.736Z,99873.31
2022-08-27T04:38:07.161Z,99870.62
2022-08-27T04:39:09.622Z,99870.49
2022-08-27T04:40:12.558Z,99869.50
2022-08-27T04:41:15.228Z,99866.58
2022-08-27T04:42:19.033Z,99871.13
2022-08-27T04:43:21.866Z,99870.62
2022-08-27T04:44:29.563Z,99872.28
2022-08-27T04:45:31.993Z,99867.77
2022-08-27T04:46:39.107Z,99868.12
2022-08-27T04:47:41.726Z,99867.28
2022-08-27T04:48:43.920Z,99870.49
2022-08-27T04:49:46.907Z,99866.45
2022-08-27T04:50:50.224Z,99870.69
2022-08-27T04:51:53.667Z,99863.50
2022-08-27T04:52:56.239Z,99860.09
2022-08-27T04:54:00.883Z,99867.19
2022-08-27T04:55:03.590Z,99860.09
2022-08-27T04:56:06.599Z,99861.64
2022-08-27T04:57:10.942Z,99858.94
2022-08-27T04:58:13.438Z,99867.19
2022-08-27T04:59:18.710Z,99872.22
2022-08-27T05:00:22.031Z,99867.51
2022-08-27T05:01:28.066Z,99868.88
2022-08-27T05:02:30.718Z,99868.50
2022-08-27T05:03:34.036Z,99875.23
2022-08-27T05:04:38.452Z,99875.56
2022-08-27T05:05:42.699Z,99875.08
2022-08-27T05:06:46.243Z,99871.00
2022-08-27T05:07:48.375Z,99871.52
2022-08-27T05:08:54.210Z,99865.16
2022-08-27T05:09:56.569Z,99870.04
2022-08-27T05:10:59.399Z,99873.73
2022-08-27T05:12:02.928Z,99870.84
2022-08-27T05:13:05.156Z,99872.52
2022-08-27T05:14:09.771Z,99879.56
2022-08-27T05:15:12.374Z,99871.13
2022-08-27T05:16:19.160Z,99877.89
2022-08-27T05:17:21.772Z,99877.58
2022-08-27T05:18:24.344Z,99880.59
2022-08-27T05:19:27.274Z,99879.02
2022-08-27T05:20:31.103Z,99882.22
2022-08-27T05:21:34.959Z,99879.34
2022-08-27T05:22:37.742Z,99885.94
2022-08-27T05:23:40.444Z,99885.98
2022-08-27T05:24:45.021Z,99885.94
2022-08-27T05:25:48.714Z,99878.53
2022-08-27T05:26:52.031Z,99882.22
2022-08-27T05:27:54.322Z,99849.09
2022-08-27T05:28:58.727Z,99879.49
2022-08-27T05:30:01.536Z,99870.94
2022-08-27T05:31:07.518Z,99879.49
2022-08-27T05:32:10.049Z,99873.27
2022-08-27T05:33:15.321Z,99873.47
2022-08-27T05:34:22.099Z,99875.84
2022-08-27T05:35:22.474Z,99881.03
2022-08-27T05:36:29.084Z,99874.30
2022-08-27T05:37:32.043Z,99877.67
2022-08-27T05:38:35.144Z,99879.81
2022-08-27T05:39:37.893Z,99881.52
2022-08-27T05:40:40.798Z,99876.48
2022-08-27T05:41:43.408Z,99870.62
2022-08-27T05:42:46.460Z,99877.73
2022-08-27T05:43:51.183Z,99871.84
2022-08-27T05:44:53.768Z,99871.84
2022-08-27T05:45:56.610Z,99865.63
2022-08-27T05:46:59.569Z,99867.80
2022-08-27T05:48:02.578Z,99870.81
2022-08-27T05:49:06.431Z,99873.22
2022-08-27T05:50:09.723Z,99868.66
2022-08-27T05:51:22.590Z,99877.22
2022-08-27T05:52:22.760Z,99867.80
2022-08-27T05:53:25.109Z,99871.00
2022-08-27T05:54:27.453Z,99861.42
2022-08-27T05:55:30.128Z,99871.20
2022-08-27T05:56:36.000Z,99864.14
2022-08-27T05:57:38.396Z,99863.81
2022-08-27T05:58:41.684Z,99859.23
2022-08-27T05:59:44.029Z,99865.63
2022-08-27T06:00:46.918Z,99858.02
2022-08-27T06:01:51.265Z,99864.63
2022-08-27T06:02:54.155Z,99859.75
2022-08-27T06:03:56.861Z,99862.81
2022-08-27T06:04:59.382Z,99861.48
2022-08-27T06:06:08.823Z,99860.09
2022-08-27T06:07:11.126Z,99860.09
2022-08-27T06:08:13.937Z,99857.38
2022-08-27T06:09:19.963Z,99861.45
2022-08-27T06:10:22.913Z,99864.14
2022-08-27T06:11:25.631Z,99860.42
2022-08-27T06:12:28.466Z,99856.41
2022-08-27T06:13:32.669Z,99855.68
2022-08-27T06:14:36.714Z,99856.06
2022-08-27T06:15:39.651Z,99860.80
2022-08-27T06:16:42.840Z,99869.37
2022-08-27T06:17:47.577Z,99867.83
2022-08-27T06:18:50.273Z,99871.90
2022-08-27T06:19:52.887Z,99871.20
2022-08-27T06:20:56.018Z,99870.87
2022-08-27T06:22:00.679Z,99871.41
2022-08-27T06:23:02.942Z,99869.39
2022-08-27T06:24:06.267Z,99861.64
2022-08-27T06:25:11.133Z,99855.77
2022-08-27T06:26:16.685Z,99867.20
2022-08-27T06:27:19.899Z,99857.27
2022-08-27T06:28:23.502Z,99861.98
2022-08-27T06:29:26.046Z,99864.19
2022-08-27T06:30:28.725Z,99863.36
2022-08-27T06:31:33.505Z,99871.06
2022-08-27T06:32:36.334Z,99867.20
2022-08-27T06:33:39.542Z,99858.16
2022-08-27T06:34:41.830Z,99858.48
2022-08-27T06:35:46.549Z,99866.21
2022-08-27T06:36:49.077Z,99859.64
2022-08-27T06:37:53.627Z,99866.54
2022-08-27T06:38:56.851Z,99866.03
2022-08-27T06:39:59.296Z,99860.12
2022-08-27T06:41:07.283Z,99870.58
2022-08-27T06:42:12.241Z,99865.19
2022-08-27T06:43:14.838Z,99858.30
2022-08-27T06:44:17.442Z,99866.21
2022-08-27T06:45:20.134Z,99850.72
2022-08-27T06:46:26.437Z,99850.72
2022-08-27T06:47:32.125Z,99857.48
2022-08-27T06:48:34.611Z,99859.15
2022-08-27T06:49:39.340Z,99852.42
2022-08-27T06:50:42.810Z,99855.95
2022-08-27T06:51:47.454Z,99852.44
2022-08-27T06:52:49.784Z,99800.66
2022-08-27T06:53:58.490Z,99851.96
2022-08-27T06:55:01.084Z,99851.09
2022-08-27T06:56:03.991Z,99860.89
2022-08-27T06:57:06.493Z,99860.88
2022-08-27T06:58:08.957Z,99854.84
2022-08-27T06:59:14.261Z,99856.24
2022-08-27T07:00:18.108Z,99856.24
2022-08-27T07:01:26.354Z,99818.76
2022-08-27T07:02:32.019Z,99854.05
2022-08-27T07:03:36.259Z,99852.19
2022-08-27T07:04:38.740Z,99853.39
2022-08-27T07:05:41.458Z,99856.42
2022-08-27T07:06:45.307Z,99850.02
2022-08-27T07:07:48.905Z,99854.75
2022-08-27T07:08:53.490Z,99853.88
2022-08-27T07:09:57.131Z,99860.98
2022-08-27T07:10:59.894Z,99851.53
2022-08-27T07:12:04.325Z,99848.50
2022-08-27T07:13:06.949Z,99848.50
2022-08-27T07:14:09.433Z,99851.02
2022-08-27T07:15:11.952Z,99846.28
2022-08-27T07:16:23.218Z,99853.87
2022-08-27T07:17:25.716Z,99854.88
2022-08-27T07:18:28.050Z,99865.52
2022-08-27T07:19:30.349Z,99860.98
2022-08-27T07:20:33.038Z,99855.90
2022-08-27T07:21:37.592Z,99855.90
2022-08-27T07:22:41.828Z,99861.95
2022-08-27T07:23:49.780Z,99858.59
2022-08-27T07:24:52.166Z,99860.61
2022-08-27T07:25:54.554Z,99867.67
2022-08-27T07:26:57.211Z,99864.00
2022-08-27T07:28:00.163Z,99868.88
2022-08-27T07:29:04.663Z,99866.67
2022-08-27T07:30:10.618Z,99869.03
2022-08-27T07:31:15.972Z,99865.98
2022-08-27T07:32:18.372Z,99866.48
2022-08-27T07:33:28.468Z,99858.20
2022-08-27T07:34:30.839Z,99862.60
2022-08-27T07:35:35.087Z,99859.18
2022-08-27T07:36:38.919Z,99868.95
2022-08-27T07:37:41.376Z,99853.78
2022-08-27T07:38:43.605Z,99862.89
2022-08-27T07:39:51.029Z,99852.57
2022-08-27T07:40:55.625Z,99854.27
2022-08-27T07:41:58.935Z,99855.41
2022-08-27T07:43:01.494Z,99849.31
2022-08-27T07:44:03.608Z,99847.95
2022-08-27T07:45:07.605Z,99845.08
2022-08-27T07:46:10.352Z,99832.05
2022-08-27T07:47:12.813Z,99832.58
2022-08-27T07:48:15.790Z,99839.98
2022-08-27T07:50:29.948Z,99828.09
2022-08-27T07:51:33.091Z,99836.27
2022-08-27T07:52:35.975Z,99831.69
2022-08-27T07:53:38.775Z,99838.27
2022-08-27T07:54:41.409Z,99831.52
2022-08-27T07:55:46.027Z,99835.75
2022-08-27T07:56:55.511Z,99824.58
2022-08-27T07:57:58.828Z,99830.98
2022-08-27T07:59:04.020Z,99833.02
2022-08-27T08:00:12.059Z,99829.94
2022-08-27T08:01:18.054Z,99831.81
2022-08-27T08:02:20.744Z,99838.02
2022-08-27T08:03:25.453Z,99829.91
2022-08-27T08:04:27.894Z,99832.56
2022-08-27T08:05:30.607Z,99838.68
2022-08-27T08:06:37.228Z,99840.55
2022-08-27T08:07:39.860Z,99837.46
2022-08-27T08:08:47.143Z,99843.38
2022-08-27T08:09:50.233Z,99837.27
2022-08-27T08:10:59.287Z,99838.20
2022-08-27T08:12:05.801Z,99787.02
2022-08-27T08:13:09.000Z,99834.73
2022-08-27T08:14:11.908Z,99838.88
2022-08-27T08:15:14.752Z,99833.72
2022-08-27T08:16:18.118Z,99840.64
2022-08-27T08:17:20.854Z,99838.33
2022-08-27T08:18:23.405Z,99834.52
2022-08-27T08:19:26.122Z,99838.27
2022-08-27T08:20:54.150Z,99836.52
2022-08-27T08:21:36.499Z,99839.41
2022-08-27T08:22:39.387Z,99840.66
2022-08-27T08:23:45.301Z,99831.69
2022-08-27T08:24:47.822Z,99826.73
2022-08-27T08:25:50.451Z,99831.29
2022-08-27T08:26:53.017Z,99834.08
2022-08-27T08:27:55.402Z,99820.70
2022-08-27T08:28:58.072Z,99827.29
2022-08-27T08:30:00.812Z,99818.77
2022-08-27T08:31:05.105Z,99809.14
2022-08-27T08:32:08.489Z,99813.92
2022-08-27T08:33:11.094Z,99819.73
2022-08-27T08:34:14.171Z,99821.28
2022-08-27T08:35:18.275Z,99813.06
2022-08-27T08:36:22.516Z,99815.14
2022-08-27T08:37:26.053Z,99812.67
2022-08-27T08:38:28.612Z,99810.25
2022-08-27T08:39:32.761Z,99819.02
2022-08-27T08:40:41.729Z,99813.47
2022-08-27T08:43:02.563Z,99809.86
2022-08-27T08:44:08.685Z,99803.80
2022-08-27T08:45:17.453Z,99805.13
2022-08-27T08:46:39.167Z,99811.69
2022-08-27T08:47:57.488Z,99802.69
2022-08-27T08:49:04.043Z,99806.03
2022-08-27T08:50:20.092Z,99804.06
2022-08-27T08:51:32.259Z,99804.47
2022-08-27T08:52:46.524Z,99744.95
2022-08-27T08:54:02.070Z,99798.63
2022-08-27T08:55:14.312Z,99805.58
2022-08-27T08:56:25.032Z,99807.24
2022-08-27T08:57:34.357Z,99801.27
2022-08-27T09:00:03.176Z,99797.21
2022-08-27T09:01:10.388Z,99808.91
2022-08-27T09:02:15.150Z,99798.05
2022-08-27T09:03:20.491Z,99801.02
2022-08-27T09:04:25.469Z,99794.75
2022-08-27T09:05:28.427Z,99800.84
2022-08-27T09:06:53.806Z,99798.95
2022-08-27T09:08:34.221Z,99799.98
2022-08-27T09:09:27.170Z,99797.47
2022-08-27T09:10:54.122Z,99802.70
2022-08-27T09:12:03.330Z,99799.58
2022-08-27T09:13:09.197Z,99797.27
2022-08-27T09:14:36.453Z,99796.23
2022-08-27T09:15:40.902Z,99800.64
2022-08-27T09:16:43.980Z,99800.65
2022-08-27T09:17:46.715Z,99796.66
2022-08-27T09:18:52.586Z,99792.69
2022-08-27T09:19:55.558Z,99792.89
2022-08-27T09:21:08.891Z,99796.86
2022-08-27T09:22:37.409Z,99792.69
2022-08-27T09:23:55.616Z,99789.96
2022-08-27T09:25:10.647Z,99788.09
2022-08-27T09:26:19.211Z,99788.09
2022-08-27T09:27:26.204Z,99792.69
2022-08-27T09:28:29.761Z,99784.52
2022-08-27T09:29:32.142Z,99791.03
2022-08-27T09:30:38.361Z,99780.34
2022-08-27T09:31:43.298Z,99791.64
2022-08-27T09:32:47.923Z,99786.41
2022-08-27T09:33:56.511Z,99792.06
2022-08-27T09:35:00.537Z,99791.41
2022-08-27T09:36:06.537Z,99793.53
2022-08-27T09:37:18.476Z,99787.47
2022-08-27T09:38:27.138Z,99785.98
2022-08-27T09:39:44.702Z,99791.63
2022-08-27T09:40:51.236Z,99789.73
2022-08-27T09:41:54.976Z,99789.16
2022-08-27T09:43:06.933Z,99789.73
2022-08-27T09:44:14.537Z,99785.38
2022-08-27T09:45:20.868Z,99789.16
2022-08-27T09:46:25.471Z,99798.96
2022-08-27T09:47:29.854Z,99793.09
2022-08-27T09:48:34.933Z,99793.97
2022-08-27T09:49:37.419Z,99787.64
2022-08-27T09:50:44.114Z,99791.62
2022-08-27T09:51:47.653Z,99790.59
2022-08-27T09:52:56.122Z,99792.06
2022-08-27T09:54:02.722Z,99786.78
2022-08-27T09:55:06.544Z,99786.98
2022-08-27T09:56:12.765Z,99792.00
2022-08-27T09:57:18.826Z,99785.70
2022-08-27T09:58:46.302Z,99791.77
2022-08-27T09:59:54.563Z,99777.06
2022-08-27T10:01:19.182Z,99779.80
2022-08-27T10:02:24.828Z,99776.23
2022-08-27T10:03:31.372Z,99773.48
2022-08-27T10:04:51.872Z,99782.33
2022-08-27T10:05:56.969Z,99780.41
2022-08-27T10:07:03.171Z,99781.66
2022-08-27T10:08:12.340Z,99782.91
2022-08-27T10:09:33.462Z,99774.70
2022-08-27T10:10:55.884Z,99782.52
2022-08-27T10:12:06.903Z,99785.67
2022-08-27T10:13:16.047Z,99783.49
2022-08-27T10:14:28.138Z,99780.41
2022-08-27T10:15:49.742Z,99789.38
2022-08-27T10:16:59.018Z,99783.73
2022-08-27T10:18:14.401Z,99778.78
2022-08-27T10:19:26.220Z,99764.11
2022-08-27T10:20:44.440Z,99780.83
2022-08-27T10:21:54.519Z,99781.91
2022-08-27T10:23:09.877Z,99787.97
2022-08-27T10:24:27.911Z,99783.38
2022-08-27T10:25:47.301Z,99785.67
2022-08-27T10:27:26.849Z,99776.05
2022-08-27T10:29:04.909Z,99784.17
2022-08-27T10:30:13.932Z,99785.00
2022-08-27T10:31:20.205Z,99783.73
2022-08-27T10:32:32.343Z,99786.68
2022-08-27T10:34:03.467Z,99781.66
2022-08-27T10:35:10.627Z,99786.72
2022-08-27T10:36:36.182Z,99788.00
2022-08-27T10:37:51.335Z,99775.46
2022-08-27T10:39:25.402Z,99784.02
2022-08-27T10:40:32.546Z,99786.77
2022-08-27T10:41:42.043Z,99778.78
2022-08-27T10:42:57.816Z,99785.70
2022-08-27T10:44:04.025Z,99780.86
2022-08-27T10:46:57.663Z,99775.13
2022-08-27T10:48:09.833Z,99768.24
2022-08-27T10:49:22.310Z,99772.59
2022-08-27T10:50:44.234Z,99770.89
2022-08-27T10:52:06.480Z,99769.81
2022-08-27T10:53:13.893Z,99769.91
2022-08-27T10:54:22.967Z,99767.41
2022-08-27T10:55:31.832Z,99769.67
2022-08-27T10:57:00.099Z,99771.30
2022-08-27T10:58:16.353Z,99719.66
2022-08-27T10:59:43.762Z,99777.41
2022-08-27T11:01:08.422Z,99776.27
2022-08-27T11:02:34.443Z,99728.98
2022-08-27T11:03:58.908Z,99788.22
2022-08-27T11:05:08.523Z,99779.66
2022-08-27T11:07:37.515Z,99780.13
2022-08-27T11:08:46.852Z,99785.65
2022-08-27T11:09:58.947Z,99781.45
2022-08-27T11:12:03.362Z,99777.24
2022-08-27T11:12:29.728Z,99784.19
2022-08-27T11:13:44.829Z,99778.98
2022-08-27T11:14:50.796Z,99780.20
2022-08-27T11:15:54.684Z,99780.42
2022-08-27T11:18:44.388Z,99772.19
2022-08-27T11:19:56.135Z,99775.80
2022-08-27T11:21:08.908Z,99769.08
2022-08-27T11:23:56.144Z,99772.16
2022-08-27T11:25:23.715Z,99768.69
2022-08-27T11:26:30.320Z,99763.23
2022-08-27T11:27:34.459Z,99772.24
2022-08-27T11:28:50.021Z,99771.35
2022-08-27T11:30:00.234Z,99777.24
2022-08-27T11:31:04.642Z,99761.73
2022-08-27T11:32:19.692Z,99734.09
2022-08-27T11:33:37.206Z,99771.52
2022-08-27T11:34:52.214Z,99763.55
2022-08-27T11:36:01.299Z,99765.84
2022-08-27T11:37:35.150Z,99768.36
2022-08-27T11:38:56.553Z,99763.53
2022-08-27T11:40:05.484Z,99760.22
2022-08-27T11:41:33.350Z,99762.41
2022-08-27T11:42:53.327Z,99762.84
2022-08-27T11:43:59.489Z,99764.09
2022-08-27T11:45:24.075Z,99764.58
2022-08-27T11:46:30.087Z,99766.60
2022-08-27T11:47:32.800Z,99767.20
2022-08-27T11:48:43.156Z,99760.98
2022-08-27T11:49:52.159Z,99755.16
2022-08-27T11:51:01.714Z,99761.09
2022-08-27T11:52:08.884Z,99768.61
2022-08-27T11:53:11.428Z,99762.33
2022-08-27T11:54:29.594Z,99762.71
2022-08-27T11:56:45.859Z,99757.13
2022-08-27T11:57:51.632Z,99750.91
2022-08-27T11:58:54.330Z,99754.84
2022-08-27T11:59:57.350Z,99757.03
2022-08-27T12:01:04.538Z,99755.34
2022-08-27T12:02:25.145Z,99756.52
2022-08-27T12:03:31.136Z,99757.77
2022-08-27T12:04:37.469Z,99759.25
2022-08-27T12:05:49.376Z,99755.48
2022-08-27T12:07:17.264Z,99754.69
2022-08-27T12:08:26.282Z,99760.26
2022-08-27T12:09:31.496Z,99755.79
2022-08-27T12:10:57.534Z,99747.22
2022-08-27T12:12:09.707Z,99753.92
2022-08-27T12:13:18.460Z,99749.67
2022-08-27T12:14:30.736Z,99754.08
2022-08-27T12:15:52.396Z,99748.40
2022-08-27T12:17:26.300Z,99752.67
2022-08-27T12:18:38.429Z,99745.06
2022-08-27T12:20:18.297Z,99736.81
2022-08-27T12:21:51.875Z,99736.23
2022-08-27T12:24:38.590Z,99725.79
2022-08-27T12:25:41.408Z,99729.00
2022-08-27T12:26:56.542Z,99736.30
2022-08-27T12:28:02.003Z,99738.66
2022-08-27T12:29:27.713Z,99735.97
2022-08-27T12:30:39.791Z,99731.30
2022-08-27T12:31:48.042Z,99736.76
2022-08-27T12:32:51.534Z,99735.08
2022-08-27T12:33:54.364Z,99682.97
2022-08-27T12:35:03.536Z,99729.98
2022-08-27T12:36:17.505Z,99730.81
2022-08-27T12:37:25.073Z,99731.45
2022-08-27T12:38:33.759Z,99732.19
2022-08-27T12:39:39.788Z,99720.26
2022-08-27T12:40:52.211Z,99733.09
2022-08-27T12:42:01.529Z,99729.75
2022-08-27T12:43:10.743Z,99728.97
2022-08-27T12:44:25.782Z,99725.60
2022-08-27T12:45:28.373Z,99726.42
2022-08-27T12:46:31.380Z,99725.60
2022-08-27T12:47:37.371Z,99727.47
2022-08-27T12:48:46.448Z,99723.16
2022-08-27T12:50:01.381Z,99726.66
2022-08-27T12:51:12.295Z,99722.08
2022-08-27T12:52:27.950Z,99724.88
2022-08-27T12:53:36.936Z,99722.72
2022-08-27T12:55:02.348Z,99717.25
2022-08-27T12:56:45.339Z,99720.59
2022-08-27T12:58:15.337Z,99716.81
2022-08-27T12:59:47.773Z,99712.96
2022-08-27T13:01:07.302Z,99717.59
2022-08-27T13:03:49.086Z,99716.33
2022-08-27T13:04:52.228Z,99703.34
2022-08-27T13:05:54.835Z,99704.70
2022-08-27T13:06:57.365Z,99712.52
2022-08-27T13:07:59.929Z,99705.18
2022-08-27T13:09:07.964Z,99705.18
2022-08-27T13:10:17.349Z,99713.19
2022-08-27T13:11:23.235Z,99707.54
2022-08-27T13:12:25.827Z,99706.67
2022-08-27T13:13:28.426Z,99707.28
2022-08-27T13:14:37.085Z,99708.73
2022-08-27T13:15:48.758Z,99709.63
2022-08-27T13:17:00.995Z,99708.95
2022-08-27T13:18:05.701Z,99712.73